x

Southeast Bering Sea -205nm Wnw Of Dutch Harbor, Ak (46073) Wave Buoy

2:50 - Wed 17th Sep 2014 All times are UTC.

  • Sig Wave height 3.0ft
  • Swell Direction
  • Peak Period 6s
  • Average Period 4s
  • Wind
    13mph, 16mph gusts
  • Sea Temp 52°f
  • Ar Temp 52°f
  • Sea Pressure 998.1mb

More Historic Weather Station data

Upgrade to MSW Pro to gain access to the past 30 days of data for over 8000 Wavebouys and Weather Stations around the globe.

Join Pro

Comparision Forecast

View Surf forecast
   
Qua 09/17 2:50 3ft 6s 4s 13 16 mph 998.1mb 52f 52f
1:50 3ft 19s 5s 13 16 mph 998.5mb 52f 52f
12:50 3ft 6s 5s 13 16 mph 998.9mb 52f 52f
Ter 09/16 11:50 3ft 5s 5s 13 16 mph 999.2mb 52f 52f
10:50 2.5ft 6s 4s 13 16 mph 999.5mb 52f 52f
9:50 2.5ft 6s 4s 13 18 mph 999.5mb 52f 52f
8:50 2.5ft 6s 4s 13 16 mph 999.2mb 52f 51f
7:50 2.5ft 5s 4s 13 16 mph 999.2mb 52f 51f
6:50 2.5ft 6s 4s 13 16 mph 999mb 52f 51f
5:50 2.5ft 6s 4s 11 13 mph 999mb 52f 50f
4:50 3ft 6s 4s 11 16 mph 998.8mb 52f 50f
3:50 3ft 6s 4s 9 13 mph 998.6mb 52f 50f
2:50 2.5ft 6s 5s 9 11 mph 998.6mb 52f 50f
1:50 2.5ft 5s 5s 9 11 mph 998.6mb 52f 50f
12:50 2.5ft 7s 5s 9
mph
998.7mb 52f 49f
11:50 2.5ft 6s 5s 4 7 mph 998.9mb 52f 49f
10:50 2.5ft 5s 5s 7
mph
999.2mb 52f 49f
9:50 2.5ft 7s 5s 9
mph
999.3mb 52f 49f
8:50 2.5ft 7s 5s 9 11 mph 999.2mb 52f 50f
7:50 3ft 6s 5s 9 11 mph 999.1mb 52f 50f
6:50 3ft 6s 5s 9 11 mph 999mb 52f 50f
5:50 3ft 6s 5s 9 11 mph 998.7mb 52f 50f
4:50 3.5ft 7s 5s 7 9 mph 998.6mb 52f 50f
3:50 3ft 6s 5s 4 7 mph 998.8mb 52f 50f
2:50 3.5ft 7s 5s 4 7 mph 998.9mb 52f 49f
1:50 3.5ft 7s 5s 7
mph
999.1mb 52f 49f
12:50 3.5ft 7s 5s 7
mph
999.5mb 52f 50f
Seg 09/15 11:50 3.5ft 8s 5s 9 11 mph 1000.2mb 52f 50f
10:50 3.5ft 7s 5s 7 9 mph 1001mb 52f 50f
9:50 3.5ft 8s 6s 9 11 mph 1001.7mb 52f 50f
8:50 4ft 8s 5s 11
mph
1002.1mb 52f 50f
7:50 3.5ft 7s 6s 11 13 mph 1002.7mb 52f 50f
6:50 4ft 8s 6s 11 13 mph 1003.2mb 52f 50f
5:50 4.5ft 8s 6s 9
mph
1003.7mb 52f 50f
4:50 5ft 8s 6s 7
mph
1003.8mb 52f 51f
3:50 4.5ft 7s 6s 9 11 mph 1004.3mb 52f 51f
2:50 5ft 7s 6s 11
mph
1004.8mb 52f 51f
1:50 5.5ft 8s 6s 7
mph
1004.9mb 52f 51f
12:50 6ft 8s 6s 9
mph
1005.5mb 52f 51f
11:50 5.5ft 8s 6s 9
mph
1005.7mb 52f 51f
10:50 5.5ft 7s 6s 9 11 mph 1005.8mb 52f 51f
9:50 6ft 8s 6s 16 20 mph 1006mb 52f 50f
8:50 6ft 8s 6s 11 13 mph 1005.9mb 52f 51f
7:50 5.5ft 8s 6s 13 16 mph 1005.6mb 52f 50f
6:50 6ft 7s 6s 11 13 mph 1005.1mb 52f 51f
5:50 6.5ft 8s 6s 13 18 mph 1004.9mb 52f 51f
4:50 5.5ft 7s 6s 13 18 mph 1004.5mb 52f 51f
3:50 6ft 8s 6s 16 20 mph 1004.3mb 52f 51f
2:50 6ft 9s 6s 16 20 mph 1004mb 52f 52f
1:50 6ft 7s 6s 16 20 mph 1003.9mb 52f 52f
12:50 7ft 8s 6s 18 20 mph 1003.6mb 52f 52f
Dom 09/14 11:50 7.5ft 8s 6s 16 18 mph 1003.5mb 52f 52f
10:50 8ft 8s 6s 18 20 mph 1003.3mb 52f 52f
9:50 8.5ft 8s 6s 16 20 mph 1003.2mb 52f 52f
8:50 9ft 9s 6s 18 22 mph 1002.8mb 52f 52f
7:50 8.5ft 9s 6s 18 22 mph 1002.4mb 52f 52f
6:50 9.5ft 9s 7s 18 25 mph 1001.8mb 52f 52f
5:50 8.5ft 9s 6s 20 22 mph 1001.1mb 52f 52f
4:50 9ft 8s 7s 20 22 mph 1000.4mb 52f 52f
3:50 9ft 9s 7s 20 25 mph 999.8mb 52f 52f
2:50 9ft 9s 6s 22 27 mph 999.5mb 52f 52f
1:50 8.5ft 8s 6s 22 29 mph 999mb 52f 52f
12:50 9ft 8s 6s 25 29 mph 998.3mb 52f 52f
11:50 9.5ft 8s 6s 25 31 mph 997.3mb 52f 52f
10:50 10ft 8s 6s 25 31 mph 996.4mb 52f 52f
9:50 11ft 8s 6s 27 31 mph 995.4mb 52f 53f
8:50 11ft 8s 6s 25 29 mph 994.5mb 52f 53f
7:50 11ft 8s 7s 27 34 mph 993.3mb 52f 53f
6:50 13ft 9s 7s 29 36 mph 992.1mb 52f 53f
5:50 12.5ft 10s 7s 29 36 mph 990.9mb 52f 53f
4:50 13ft 9s 7s 29 38 mph 989.7mb 52f 53f
3:50 12ft 8s 7s 29 36 mph 988.5mb 52f 53f
2:50 13ft 10s 7s 29 36 mph 987.6mb 52f 53f
1:50 12.5ft 10s 7s 29 36 mph 986.3mb 52f 53f
12:50 13ft 9s 7s 29 36 mph 984.8mb 52f 53f
Sáb 09/13 11:50 14ft 9s 7s 31 40 mph 983.5mb 52f 53f
10:50 14.5ft 9s 7s 34 40 mph 982mb 52f 52f
9:50 14ft 11s 7s 34 40 mph 980.5mb 52f 52f
8:50 15.5ft 9s 7s 36 45 mph 978.8mb 52f 53f
7:50 17ft 10s 8s 36 45 mph 977mb 52f 53f
6:50 18.5ft 11s 8s 36 45 mph 975.3mb 52f 52f
5:50 19ft 11s 8s 40 49 mph 973mb 52f 52f
4:50 18ft 11s 8s 36 47 mph 971mb 53f 52f
3:50 17ft 11s 8s 31 40 mph 969.4mb 53f 52f
2:50 20.5ft 11s 9s 38 47 mph 967.6mb 53f 52f
1:50 18.5ft 10s 8s 31 38 mph 966.6mb 53f 53f
12:50 18.5ft 11s 9s 40 49 mph 964.7mb 53f 52f
11:50 18.5ft 11s 9s 40 49 mph 964.2mb 53f 51f
10:50 15ft 11s 8s 34 43 mph 965.9mb 53f 53f
9:50 17ft 11s 8s 29 38 mph 966.5mb 53f 53f
8:50 17ft 11s 8s 29 36 mph 966.1mb 53f 53f
7:50 19ft 11s 8s 27 34 mph 966mb 53f 53f
6:50 19.5ft 11s 8s 29 36 mph 966.2mb 53f 52f
5:50 21.5ft 11s 8s 36 43 mph 966.2mb 53f 52f
4:50 18.5ft 9s 8s 40 49 mph 967.3mb 53f 51f
3:50 18ft 9s 8s 40 51 mph 969.7mb 53f 51f